Time;durP1;ratioP1;P1;durP2;ratioP2;P2;SDS_P1;SDS_P2;PMS_P1;PMS_P2;Temp;Humidity;BMP_temperature;BMP_pressure;BME280_temperature;BME280_humidity;BME280_pressure;Samples;Min_cycle;Max_cycle;Signal;HPM_P1;HPM_P2
2022/09/20 00:01:07;;;;;;;13.02;1.80;;;9.40;99.90;;;;;;5005368;28;20036;-79
2022/09/20 00:03:34;;;;;;;17.10;1.98;;;9.40;99.90;;;;;;5022094;28;20183;-79
2022/09/20 00:06:01;;;;;;;9.38;1.70;;;9.30;99.90;;;;;;5022376;28;20056;-79
2022/09/20 00:08:27;;;;;;;11.82;1.60;;;9.30;99.90;;;;;;5025649;28;20032;-79
2022/09/20 00:11:05;;;;;;;15.02;1.48;;;9.30;99.90;;;;;;5024665;28;20044;-79
2022/09/20 00:13:32;;;;;;;8.27;1.60;;;9.20;99.90;;;;;;5023878;28;20120;-79
2022/09/20 00:15:58;;;;;;;5.85;1.30;;;9.30;99.90;;;;;;5020190;28;20542;-79
2022/09/20 00:18:25;;;;;;;17.83;1.83;;;9.20;99.90;;;;;;5024167;28;20119;-79
2022/09/20 00:20:52;;;;;;;12.95;1.70;;;9.20;99.90;;;;;;5019003;28;20051;-79
2022/09/20 00:23:19;;;;;;;11.40;1.70;;;9.20;99.90;;;;;;5022773;28;20061;-79
2022/09/20 00:25:45;;;;;;;15.90;1.77;;;9.10;99.90;;;;;;5021778;28;20469;-79
2022/09/20 00:28:11;;;;;;;10.07;1.70;;;9.10;99.90;;;;;;5026572;28;20029;-79
2022/09/20 00:30:38;;;;;;;12.55;1.70;;;9.10;99.90;;;;;;5007185;28;20051;-79
2022/09/20 00:33:04;;;;;;;9.13;1.70;;;9.10;99.90;;;;;;5004762;28;20029;-79
2022/09/20 00:35:30;;;;;;;11.95;1.33;;;9.00;99.90;;;;;;5025732;28;20049;-79
2022/09/20 00:37:56;;;;;;;6.97;1.52;;;9.00;99.90;;;;;;5004623;28;20064;-79
2022/09/20 00:40:25;;;;;;;9.50;1.50;;;8.80;99.90;;;;;;5018591;28;20056;-79
2022/09/20 00:42:51;;;;;;;11.30;1.55;;;8.90;99.90;;;;;;5005061;28;20090;-79
2022/09/20 00:45:26;;;;;;;16.90;1.90;;;8.90;99.90;;;;;;5022791;28;20077;-78
2022/09/20 00:48:12;;;;;;;8.88;1.40;;;8.80;99.90;;;;;;5001602;28;20131;-78
2022/09/20 00:50:48;;;;;;;8.35;1.50;;;8.90;99.90;;;;;;5000204;28;20119;-79
2022/09/20 00:53:17;;;;;;;13.52;1.85;;;8.80;99.90;;;;;;5019596;28;20472;-79
2022/09/20 00:55:53;;;;;;;17.25;1.88;;;8.80;99.90;;;;;;5016236;28;20040;-79
2022/09/20 00:58:20;;;;;;;12.60;1.50;;;8.80;99.90;;;;;;5004532;28;20053;-79
2022/09/20 01:00:47;;;;;;;8.95;1.30;;;8.80;99.90;;;;;;5027044;28;20040;-79
2022/09/20 01:03:17;;;;;;;19.05;1.90;;;8.90;99.90;;;;;;5024445;28;20040;-79
2022/09/20 01:05:44;;;;;;;15.77;1.60;;;9.00;99.90;;;;;;5003570;28;20069;-79
2022/09/20 01:08:10;;;;;;;12.85;1.50;;;8.90;99.90;;;;;;5025077;28;20043;-79
2022/09/20 01:10:36;;;;;;;15.10;2.17;;;9.00;99.90;;;;;;5005611;28;22102;-79
2022/09/20 01:13:04;;;;;;;11.65;1.90;;;8.90;99.90;;;;;;5026644;28;20033;-79
2022/09/20 01:15:33;;;;;;;9.27;1.83;;;8.90;99.90;;;;;;5004857;28;20581;-79
2022/09/20 01:17:59;;;;;;;10.95;1.90;;;8.80;99.90;;;;;;5003455;28;20441;-79
2022/09/20 01:20:32;;;;;;;10.13;1.60;;;8.90;99.90;;;;;;5003354;28;20064;-79
2022/09/20 01:23:38;;;;;;;13.13;1.77;;;8.80;99.90;;;;;;5023859;28;20357;-79
2022/09/20 01:26:04;;;;;;;13.68;1.98;;;8.70;99.90;;;;;;5016703;28;20073;-79
2022/09/20 01:28:30;;;;;;;10.32;1.90;;;8.60;99.90;;;;;;5035995;28;20190;-79
2022/09/20 01:31:11;;;;;;;10.15;2.30;;;8.60;99.90;;;;;;5022689;28;20403;-78
2022/09/20 01:33:48;;;;;;;11.32;2.13;;;8.40;99.90;;;;;;5024803;28;20098;-79
2022/09/20 01:36:44;;;;;;;10.55;1.95;;;8.30;99.90;;;;;;5008568;28;20446;-78
2022/09/20 01:39:13;;;;;;;;;;;8.40;99.90;;;;;;5009407;28;20063;-79
2022/09/20 01:42:01;;;;;;;14.02;2.42;;;8.40;99.90;;;;;;5021988;28;19917;-78
2022/09/20 01:44:55;;;;;;;11.38;2.67;;;8.40;99.90;;;;;;5039705;28;20059;-79
2022/09/20 01:47:39;;;;;;;9.52;1.60;;;8.30;99.90;;;;;;5024813;28;20061;-79
2022/09/20 01:50:27;;;;;;;11.20;1.92;;;8.30;99.90;;;;;;5007337;28;20040;-78
2022/09/20 01:53:08;;;;;;;12.63;1.90;;;8.30;99.90;;;;;;5028697;28;20033;-79
2022/09/20 01:55:43;;;;;;;8.68;1.90;;;8.40;99.90;;;;;;5026805;28;20060;-79
2022/09/20 01:58:30;;;;;;;20.05;1.67;;;8.30;99.90;;;;;;5025671;28;20047;-79
2022/09/20 02:01:29;;;;;;;5.57;1.67;;;8.20;99.90;;;;;;5008353;28;20085;-79
2022/09/20 02:04:19;;;;;;;9.00;1.70;;;8.20;99.90;;;;;;5022517;28;20052;-79
2022/09/20 02:07:16;;;;;;;9.15;1.52;;;8.20;99.90;;;;;;5020825;28;20114;-79
2022/09/20 02:10:04;;;;;;;8.63;1.63;;;8.10;99.90;;;;;;5013109;28;20122;-79
2022/09/20 02:12:39;;;;;;;13.75;1.75;;;8.10;99.90;;;;;;5028712;28;20167;-79
2022/09/20 02:15:28;;;;;;;9.93;1.98;;;8.00;99.90;;;;;;5008647;28;20041;-79
2022/09/20 02:18:03;;;;;;;14.60;1.85;;;7.90;99.90;;;;;;5026274;28;20706;-79
2022/09/20 02:20:48;;;;;;;9.98;1.80;;;7.90;99.90;;;;;;5028267;28;20119;-79
2022/09/20 02:23:20;;;;;;;8.95;1.48;;;7.80;99.90;;;;;;5023117;28;20496;-79
2022/09/20 02:26:05;;;;;;;9.50;1.58;;;7.80;99.90;;;;;;5008584;28;20056;-79
2022/09/20 02:28:53;;;;;;;10.95;1.65;;;7.70;99.90;;;;;;5026476;28;20040;-79
2022/09/20 02:31:56;;;;;;;9.48;1.65;;;7.60;99.90;;;;;;5009021;28;20040;-79
2022/09/20 02:34:35;;;;;;;17.85;1.90;;;7.60;99.90;;;;;;5029316;28;20073;-78
2022/09/20 02:37:17;;;;;;;12.57;1.50;;;7.60;99.90;;;;;;5028088;28;20040;-78
2022/09/20 02:40:09;;;;;;;8.45;1.50;;;7.70;99.90;;;;;;5028522;28;20487;-78
2022/09/20 02:43:03;;;;;;;9.25;1.60;;;7.60;99.90;;;;;;5009171;28;20072;-78
2022/09/20 02:46:05;;;;;;;11.20;1.67;;;7.60;99.90;;;;;;5013312;28;20045;-78
2022/09/20 02:49:04;;;;;;;10.15;1.33;;;7.70;99.90;;;;;;5005939;28;20483;-78
2022/09/20 02:51:51;;;;;;;10.75;1.75;;;7.50;99.90;;;;;;5019275;28;20333;-78
2022/09/20 02:54:35;;;;;;;7.45;1.48;;;7.50;99.90;;;;;;5022579;28;20045;-78
2022/09/20 02:57:28;;;;;;;6.45;1.42;;;7.50;99.90;;;;;;5011143;28;20836;-78
2022/09/20 03:00:01;;;;;;;11.88;1.40;;;7.40;99.90;;;;;;5021725;28;20109;-78
2022/09/20 03:02:29;;;;;;;9.23;1.48;;;7.40;99.90;;;;;;5031337;28;20048;-78
2022/09/20 03:05:25;;;;;;;8.02;1.50;;;7.40;99.90;;;;;;5004958;28;20387;-78
2022/09/20 03:08:08;;;;;;;13.52;1.50;;;7.40;99.90;;;;;;4999716;28;20060;-78
2022/09/20 03:10:53;;;;;;;9.02;1.50;;;7.30;99.90;;;;;;5016896;28;20055;-78
2022/09/20 03:13:26;;;;;;;4.53;1.52;;;7.30;99.90;;;;;;5010486;28;20134;-78
2022/09/20 03:16:26;;;;;;;12.55;1.48;;;7.30;99.90;;;;;;5019227;28;20442;-78
2022/09/20 03:19:11;;;;;;;10.05;1.30;;;7.20;99.90;;;;;;5022262;28;20068;-78
2022/09/20 03:21:49;;;;;;;11.15;1.35;;;7.20;99.90;;;;;;5004958;28;21746;-78
2022/09/20 03:24:37;;;;;;;9.80;1.55;;;7.10;99.90;;;;;;5021733;28;20124;-79
2022/09/20 03:27:12;;;;;;;10.38;1.27;;;7.10;99.90;;;;;;5019273;28;20072;-78
2022/09/20 03:30:18;;;;;;;7.65;1.30;;;7.10;99.90;;;;;;5018306;28;20036;-78
2022/09/20 03:32:44;;;;;;;9.40;1.50;;;7.10;99.90;;;;;;5016631;28;20361;-78
2022/09/20 03:35:28;;;;;;;7.28;1.48;;;7.20;99.90;;;;;;5005437;28;20059;-78
2022/09/20 03:38:19;;;;;;;6.90;1.37;;;7.10;99.90;;;;;;5001940;28;20041;-78
2022/09/20 03:41:16;;;;;;;17.45;1.70;;;7.20;99.90;;;;;;5001543;28;20060;-78
2022/09/20 03:44:09;;;;;;;8.95;1.85;;;7.30;99.90;;;;;;5018443;28;20152;-78
2022/09/20 03:46:45;;;;;;;9.45;1.80;;;7.40;99.90;;;;;;5018215;28;20045;-78
2022/09/20 03:50:05;;;;;;;9.23;1.58;;;7.50;99.90;;;;;;5019612;28;20061;-78
2022/09/20 03:52:50;;;;;;;11.88;1.73;;;7.60;99.90;;;;;;4940095;28;20130;-79
2022/09/20 03:55:41;;;;;;;12.88;1.70;;;7.70;99.90;;;;;;4941664;28;20050;-79
2022/09/20 03:58:40;;;;;;;12.02;1.70;;;7.80;99.90;;;;;;4928268;28;20043;-78
2022/09/20 04:01:18;;;;;;;12.65;1.90;;;8.00;99.90;;;;;;4947872;28;20081;-78
2022/09/20 04:03:55;;;;;;;12.75;2.33;;;8.20;99.90;;;;;;4948162;28;20097;-78
2022/09/20 04:06:39;;;;;;;12.85;1.85;;;8.40;99.90;;;;;;4948486;28;20062;-78
2022/09/20 04:09:48;;;;;;;13.48;1.83;;;8.60;99.90;;;;;;4939868;28;20112;-78
2022/09/20 04:12:46;;;;;;;11.18;1.60;;;8.60;99.90;;;;;;4940766;28;20044;-78
2022/09/20 04:15:12;;;;;;;10.38;1.63;;;8.60;99.90;;;;;;4944491;28;20168;-79
2022/09/20 04:18:10;;;;;;;8.82;1.70;;;8.70;99.90;;;;;;4941902;28;20063;-78
2022/09/20 04:20:45;;;;;;;9.50;1.48;;;8.70;99.90;;;;;;4926272;28;20078;-78
2022/09/20 04:23:20;;;;;;;8.05;1.40;;;8.80;99.90;;;;;;4958636;28;20105;-78
2022/09/20 04:25:48;;;;;;;12.45;1.80;;;8.80;99.90;;;;;;4973050;28;20057;-78
2022/09/20 04:28:24;;;;;;;13.30;1.70;;;8.80;99.90;;;;;;5024869;28;20033;-78
2022/09/20 04:30:55;;;;;;;8.52;1.52;;;8.80;99.90;;;;;;5024515;28;20044;-78
2022/09/20 04:33:23;;;;;;;12.25;1.85;;;8.90;99.90;;;;;;5010164;28;20099;-78
2022/09/20 04:38:42;;;;;;;9.00;1.63;;;8.80;99.90;;;;;;5041969;28;20130;-78
2022/09/20 04:41:42;;;;;;;6.25;1.83;;;8.90;99.90;;;;;;5024431;28;20095;-78
2022/09/20 04:44:48;;;;;;;8.02;1.52;;;8.80;99.90;;;;;;5020593;28;20036;-78
2022/09/20 04:47:19;;;;;;;5.40;1.58;;;8.80;99.90;;;;;;5007635;28;20067;-78
2022/09/20 04:50:22;;;;;;;6.68;1.67;;;8.70;99.90;;;;;;5007830;28;20068;-77
2022/09/20 04:53:14;;;;;;;11.10;1.63;;;8.70;99.90;;;;;;5020081;28;20117;-78
2022/09/20 04:55:54;;;;;;;4.60;1.33;;;8.70;99.90;;;;;;5017609;28;20503;-77
2022/09/20 04:58:31;;;;;;;9.48;1.80;;;8.70;99.90;;;;;;5005781;28;20056;-78
2022/09/20 05:01:15;;;;;;;7.18;1.52;;;8.70;99.90;;;;;;5005729;28;20040;-78
2022/09/20 05:04:14;;;;;;;12.52;1.90;;;8.80;99.90;;;;;;5005508;28;20071;-78
2022/09/20 05:07:03;;;;;;;13.85;1.73;;;8.80;99.90;;;;;;5021933;28;20049;-78
2022/09/20 05:09:54;;;;;;;13.65;1.50;;;8.80;99.90;;;;;;5004703;28;20115;-78
2022/09/20 05:12:38;;;;;;;10.70;1.75;;;8.90;99.90;;;;;;5022841;28;20044;-79
2022/09/20 05:15:25;;;;;;;12.07;1.90;;;9.00;99.90;;;;;;5038317;28;20041;-79
2022/09/20 05:18:04;;;;;;;7.38;1.30;;;9.00;99.90;;;;;;5004218;28;20421;-79
2022/09/20 05:20:48;;;;;;;4.28;1.58;;;9.10;99.90;;;;;;5009098;28;20385;-79
2022/09/20 05:23:40;;;;;;;13.55;1.67;;;9.10;99.90;;;;;;5043327;28;20129;-80
2022/09/20 05:26:18;;;;;;;7.80;1.67;;;9.20;99.90;;;;;;5020887;28;20045;-79
2022/09/20 05:28:52;;;;;;;9.07;1.75;;;9.30;99.90;;;;;;5021416;28;20076;-76
2022/09/20 05:31:42;;;;;;;9.20;1.58;;;9.40;99.90;;;;;;5007009;28;20048;-80
2022/09/20 05:34:41;;;;;;;13.30;1.98;;;9.40;99.90;;;;;;5042261;28;20037;-77
2022/09/20 05:37:35;;;;;;;5.93;1.42;;;9.50;99.90;;;;;;5022303;28;20033;-79
2022/09/20 05:40:37;;;;;;;12.85;1.63;;;9.60;99.90;;;;;;5024425;28;20127;-81
2022/09/20 05:43:12;;;;;;;14.05;1.50;;;10.10;99.90;;;;;;5024680;28;20112;-79
2022/09/20 05:46:02;;;;;;;10.95;1.75;;;10.00;99.90;;;;;;5041807;28;20303;-79
2022/09/20 05:49:10;;;;;;;9.02;2.20;;;9.90;99.90;;;;;;5025340;28;20033;-79
2022/09/20 05:52:06;;;;;;;12.38;1.67;;;9.90;99.90;;;;;;4999925;28;20152;-80
2022/09/20 05:54:54;;;;;;;5.75;1.25;;;9.90;99.90;;;;;;4983418;28;20184;-80
2022/09/20 05:57:37;;;;;;;6.07;1.48;;;10.00;99.90;;;;;;4997998;28;20038;-80
2022/09/20 06:00:17;;;;;;;5.05;1.40;;;9.70;99.90;;;;;;4993740;28;20053;-80
2022/09/20 06:03:38;;;;;;;8.43;1.42;;;9.70;99.90;;;;;;4983795;28;20043;-78
2022/09/20 06:06:17;;;;;;;9.20;1.50;;;9.70;99.90;;;;;;4926260;29;20138;-79
2022/09/20 06:08:56;;;;;;;14.57;2.30;;;9.70;99.90;;;;;;4901822;29;20054;-80
2022/09/20 06:11:36;;;;;;;7.03;1.50;;;9.80;99.90;;;;;;4902268;29;21011;-79
2022/09/20 06:14:08;;;;;;;11.43;1.70;;;9.70;99.90;;;;;;4887153;29;20107;-77
2022/09/20 06:16:42;;;;;;;7.43;1.35;;;9.80;99.90;;;;;;4906992;29;20401;-79
2022/09/20 06:19:44;;;;;;;5.85;1.52;;;9.80;99.90;;;;;;4892572;29;20082;-79
2022/09/20 06:22:24;;;;;;;7.53;1.60;;;9.90;99.90;;;;;;4921519;29;20373;-78
2022/09/20 06:25:08;;;;;;;7.00;1.58;;;10.10;99.90;;;;;;4910248;28;20065;-79
2022/09/20 06:27:50;;;;;;;12.75;1.88;;;10.10;99.90;;;;;;4944973;28;20046;-80
2022/09/20 06:30:30;;;;;;;7.07;1.50;;;10.20;99.90;;;;;;4928156;28;20074;-79
2022/09/20 06:33:14;;;;;;;9.30;1.80;;;10.40;99.90;;;;;;4939937;28;20141;-79
2022/09/20 06:35:52;;;;;;;6.20;1.90;;;10.40;99.90;;;;;;4939101;28;20245;-79
2022/09/20 06:41:47;;;;;;;9.25;1.33;;;10.60;99.90;;;;;;5019589;28;20136;-79
2022/09/20 06:44:12;;;;;;;11.45;1.30;;;10.70;99.90;;;;;;5018487;28;20154;-79
2022/09/20 06:46:40;;;;;;;10.10;1.77;;;10.70;99.90;;;;;;5017500;28;20068;-78
2022/09/20 06:49:08;;;;;;;12.45;1.45;;;10.80;99.90;;;;;;5018457;28;20053;-80
2022/09/20 06:51:36;;;;;;;9.93;1.60;;;10.80;99.90;;;;;;5007348;28;20465;-79
2022/09/20 06:54:05;;;;;;;9.60;1.70;;;10.80;99.90;;;;;;5041592;28;20115;-80
2022/09/20 06:56:35;;;;;;;9.10;1.58;;;10.80;99.90;;;;;;5022793;28;20373;-79
2022/09/20 06:59:02;;;;;;;7.25;1.60;;;10.80;99.90;;;;;;5005344;28;20074;-79
2022/09/20 07:01:27;;;;;;;10.43;1.63;;;10.90;99.90;;;;;;5013325;28;20049;-80
2022/09/20 07:03:53;;;;;;;8.23;1.67;;;11.00;99.90;;;;;;5028151;28;20029;-80
2022/09/20 07:06:18;;;;;;;8.95;1.50;;;11.10;99.90;;;;;;5009013;28;20102;-79
2022/09/20 07:08:45;;;;;;;9.63;1.52;;;11.30;99.90;;;;;;5025916;28;20041;-79
2022/09/20 07:11:16;;;;;;;7.75;1.67;;;11.20;99.90;;;;;;5014873;28;20033;-80
2022/09/20 07:13:48;;;;;;;10.32;1.70;;;11.20;99.90;;;;;;5000555;28;20056;-81
2022/09/20 07:16:14;;;;;;;7.07;1.35;;;11.40;99.90;;;;;;5017984;28;20094;-80
2022/09/20 07:18:40;;;;;;;7.88;1.75;;;11.30;99.90;;;;;;5031233;28;20129;-80
2022/09/20 07:21:10;;;;;;;7.65;1.60;;;11.50;99.90;;;;;;5041957;28;20091;-78
2022/09/20 07:23:35;;;;;;;10.55;1.75;;;11.50;99.90;;;;;;5020378;28;20373;-79
2022/09/20 07:26:01;;;;;;;7.75;1.60;;;11.60;99.90;;;;;;5004355;28;20048;-79
2022/09/20 07:28:28;;;;;;;6.07;1.40;;;11.80;99.90;;;;;;5008526;28;20048;-80
2022/09/20 07:30:53;;;;;;;11.57;1.45;;;11.80;99.90;;;;;;5007243;28;20553;-79
2022/09/20 07:33:20;;;;;;;7.28;1.20;;;11.70;99.90;;;;;;4998640;28;20052;-79
2022/09/20 07:35:53;;;;;;;7.80;1.30;;;11.80;99.90;;;;;;5004914;28;20052;-79
2022/09/20 07:38:23;;;;;;;8.05;1.17;;;11.80;99.90;;;;;;5018199;28;20044;-80
2022/09/20 07:41:01;;;;;;;7.72;1.10;;;11.80;99.90;;;;;;5009700;28;20068;-79
2022/09/20 07:43:29;;;;;;;5.78;1.05;;;11.90;99.90;;;;;;5018851;28;20049;-80
2022/09/20 07:45:56;;;;;;;6.57;1.20;;;12.00;99.90;;;;;;5037649;28;20049;-80
2022/09/20 07:48:24;;;;;;;4.22;0.85;;;12.00;99.90;;;;;;5006509;28;20056;-80
2022/09/20 07:50:56;;;;;;;11.30;1.40;;;12.10;99.90;;;;;;5027935;28;20054;-79
2022/09/20 07:53:22;;;;;;;7.88;1.23;;;12.20;99.90;;;;;;5032000;28;20049;-79
2022/09/20 07:56:00;;;;;;;10.05;1.30;;;12.40;99.90;;;;;;5024141;28;20124;-79
2022/09/20 07:58:26;;;;;;;9.63;1.88;;;12.60;99.90;;;;;;5006272;28;20053;-79
2022/09/20 08:00:56;;;;;;;9.70;1.70;;;12.60;99.90;;;;;;5020616;28;20433;-80
2022/09/20 08:03:22;;;;;;;4.95;0.95;;;12.60;99.90;;;;;;5011972;28;20126;-89
2022/09/20 08:05:49;;;;;;;9.07;1.77;;;12.70;99.90;;;;;;4992229;28;20045;-87
2022/09/20 08:08:30;;;;;;;7.65;1.40;;;12.80;99.90;;;;;;5025931;28;20433;-86
2022/09/20 08:11:24;;;;;;;8.18;1.38;;;12.80;99.90;;;;;;5024689;28;20132;-85
2022/09/20 08:13:55;;;;;;;9.02;1.40;;;12.90;99.90;;;;;;5005405;28;20492;-85
2022/09/20 08:16:28;;;;;;;5.97;1.45;;;12.80;99.90;;;;;;5003983;28;20155;-86
2022/09/20 08:18:56;;;;;;;9.13;1.67;;;13.00;99.90;;;;;;5020190;28;20041;-85
2022/09/20 08:21:27;;;;;;;7.40;1.08;;;13.00;99.90;;;;;;5002044;28;20049;-85
2022/09/20 08:23:52;;;;;;;7.20;1.20;;;13.00;99.90;;;;;;5011297;28;20051;-82
2022/09/20 08:26:21;;;;;;;5.88;1.30;;;13.00;99.90;;;;;;5026572;28;20389;-83
2022/09/20 08:28:51;;;;;;;12.63;1.60;;;13.00;99.90;;;;;;5021296;28;20060;-82
2022/09/20 08:31:18;;;;;;;9.20;1.67;;;13.10;99.90;;;;;;5005686;28;20061;-82
2022/09/20 08:33:45;;;;;;;10.98;1.52;;;13.20;99.90;;;;;;5010929;28;20515;-82
2022/09/20 08:36:13;;;;;;;10.05;1.55;;;13.30;99.90;;;;;;5008738;28;20110;-83
2022/09/20 08:38:41;;;;;;;7.95;1.40;;;13.30;99.90;;;;;;5025609;28;20064;-85
2022/09/20 08:41:25;;;;;;;6.25;1.25;;;13.40;99.90;;;;;;5025193;28;20048;-81
2022/09/20 08:44:25;;;;;;;5.95;1.08;;;13.50;99.90;;;;;;5019992;28;20609;-82
2022/09/20 08:47:04;;;;;;;9.43;1.15;;;13.70;99.90;;;;;;5004233;28;20052;-83
2022/09/20 08:49:39;;;;;;;6.68;1.10;;;14.00;99.90;;;;;;5011083;28;20144;-82
2022/09/20 08:52:06;;;;;;;4.38;0.80;;;14.30;99.90;;;;;;5042759;28;20135;-81
2022/09/20 08:54:34;;;;;;;4.80;0.95;;;14.30;99.90;;;;;;5021574;28;20098;-81
2022/09/20 08:57:09;;;;;;;4.53;0.90;;;14.30;99.90;;;;;;5026384;28;20044;-82
2022/09/20 08:59:35;;;;;;;;;;;14.10;99.90;;;;;;5021640;28;20052;-82
2022/09/20 09:02:00;;;;;;;4.35;0.88;;;14.00;99.90;;;;;;5024250;28;19925;-81
2022/09/20 09:04:35;;;;;;;7.28;1.15;;;14.20;99.90;;;;;;5019084;28;20345;-82
2022/09/20 09:07:01;;;;;;;5.07;1.02;;;14.10;99.90;;;;;;5019230;28;20465;-83
2022/09/20 09:09:28;;;;;;;5.47;0.98;;;14.30;99.90;;;;;;5004674;28;20053;-82
2022/09/20 09:11:57;;;;;;;6.20;0.95;;;14.30;99.90;;;;;;5040286;28;20131;-82
2022/09/20 09:14:53;;;;;;;6.93;1.13;;;14.40;99.90;;;;;;5024649;28;20455;-81
2022/09/20 09:17:24;;;;;;;6.55;1.35;;;14.60;99.90;;;;;;5023487;28;20410;-81
2022/09/20 09:19:58;;;;;;;5.40;1.05;;;14.90;99.90;;;;;;5038862;28;20049;-81
2022/09/20 09:22:44;;;;;;;10.05;1.33;;;15.00;99.90;;;;;;5023691;28;20051;-80
2022/09/20 09:25:13;;;;;;;5.85;0.90;;;15.10;99.90;;;;;;5026755;28;20091;-81
2022/09/20 09:27:59;;;;;;;9.80;1.10;;;15.00;99.90;;;;;;5044408;28;20041;-82
2022/09/20 09:30:26;;;;;;;3.80;0.88;;;15.10;99.90;;;;;;5023306;28;20501;-82
2022/09/20 09:33:14;;;;;;;4.40;0.95;;;15.20;99.90;;;;;;5007165;28;20049;-82
2022/09/20 09:35:41;;;;;;;4.05;1.10;;;15.30;99.90;;;;;;5026270;28;20335;-83
2022/09/20 09:38:20;;;;;;;4.63;0.80;;;15.30;99.90;;;;;;5038840;28;20026;-82
2022/09/20 09:41:07;;;;;;;5.75;0.60;;;15.50;99.90;;;;;;5023971;28;20096;-82
2022/09/20 09:43:39;;;;;;;7.35;1.00;;;15.50;99.90;;;;;;5006927;28;20106;-81
2022/09/20 09:46:22;;;;;;;5.82;1.00;;;15.70;99.90;;;;;;5041614;28;20041;-82
2022/09/20 09:49:07;;;;;;;4.82;1.15;;;15.70;99.90;;;;;;5016510;28;20041;-76
2022/09/20 09:51:34;;;;;;;4.03;0.90;;;15.70;99.90;;;;;;5027843;28;20049;-79
2022/09/20 09:54:01;;;;;;;5.30;0.75;;;15.70;99.90;;;;;;5024457;28;20049;-79
2022/09/20 09:56:56;;;;;;;7.50;0.85;;;15.70;99.90;;;;;;5023044;28;20076;-78
2022/09/20 09:59:50;;;;;;;3.72;0.70;;;15.70;99.90;;;;;;5028501;28;20047;-79
2022/09/20 10:02:22;;;;;;;10.07;1.52;;;16.00;99.90;;;;;;5009977;28;20120;-78
2022/09/20 10:04:59;;;;;;;8.27;1.15;;;16.20;99.90;;;;;;5027990;28;20056;-78
2022/09/20 10:07:43;;;;;;;8.20;1.10;;;16.40;99.90;;;;;;5014529;28;20120;-79
2022/09/20 10:10:31;;;;;;;5.63;0.90;;;16.30;99.90;;;;;;5034618;28;20700;-79
2022/09/20 10:13:09;;;;;;;5.15;0.82;;;16.30;99.90;;;;;;5021968;28;20144;-79
2022/09/20 10:16:14;;;;;;;10.65;1.10;;;16.30;99.90;;;;;;5022288;28;20791;-79
2022/09/20 10:18:52;;;;;;;8.65;0.88;;;16.40;99.90;;;;;;4938983;28;20097;-78
2022/09/20 10:21:24;;;;;;;7.00;1.10;;;16.50;99.90;;;;;;4947859;28;20073;-78
2022/09/20 10:23:58;;;;;;;12.20;1.20;;;16.40;99.90;;;;;;4939357;28;20117;-78
2022/09/20 10:27:00;;;;;;;7.15;1.20;;;16.30;99.90;;;;;;4957927;28;20538;-80
2022/09/20 10:29:38;;;;;;;13.15;1.33;;;16.70;99.90;;;;;;4940188;28;20053;-81
2022/09/20 10:32:15;;;;;;;7.95;1.20;;;16.80;99.90;;;;;;4950489;28;20038;-80
2022/09/20 10:35:14;;;;;;;9.23;1.13;;;17.10;99.90;;;;;;4959895;28;20113;-78
2022/09/20 10:38:09;;;;;;;5.40;0.90;;;17.40;99.90;;;;;;4959957;28;20671;-78
2022/09/20 10:43:56;;;;;;;6.20;1.17;;;17.00;99.90;;;;;;4961225;28;20039;-81
2022/09/20 10:46:52;;;;;;;7.07;1.17;;;17.00;99.90;;;;;;4928947;28;20062;-82
2022/09/20 10:49:34;;;;;;;7.63;1.30;;;17.10;99.90;;;;;;4946753;28;20189;-80
2022/09/20 10:52:15;;;;;;;5.85;1.42;;;17.50;99.90;;;;;;4944776;28;20046;-80
2022/09/20 10:54:47;;;;;;;6.35;1.27;;;17.50;99.90;;;;;;4975573;28;20111;-78
2022/09/20 10:57:28;;;;;;;8.50;1.20;;;17.50;99.90;;;;;;5021597;28;20234;-81
2022/09/20 11:00:17;;;;;;;8.48;1.30;;;17.40;99.90;;;;;;5025518;28;20044;-80
2022/09/20 11:03:07;;;;;;;10.90;1.50;;;17.30;99.90;;;;;;5041666;28;20492;-78
2022/09/20 11:05:57;;;;;;;7.95;1.30;;;17.30;99.90;;;;;;5021419;28;20045;-79
2022/09/20 11:08:27;;;;;;;8.30;1.10;;;17.20;99.90;;;;;;5028628;28;20049;-79
2022/09/20 11:11:04;;;;;;;7.07;1.20;;;17.10;99.90;;;;;;5028369;28;20052;-79
2022/09/20 11:13:46;;;;;;;8.95;1.40;;;17.00;99.90;;;;;;5028329;28;20116;-79
2022/09/20 11:16:42;;;;;;;6.45;1.20;;;17.00;99.90;;;;;;5029009;28;20040;-80
2022/09/20 11:19:19;;;;;;;5.85;1.25;;;16.90;99.90;;;;;;5016509;28;20048;-79
2022/09/20 11:22:14;;;;;;;7.45;1.00;;;17.00;99.90;;;;;;5009631;28;20185;-80
2022/09/20 11:25:10;;;;;;;6.78;1.23;;;17.20;99.90;;;;;;5017637;28;20132;-76
2022/09/20 11:27:46;;;;;;;4.13;0.98;;;17.20;99.40;;;;;;5027364;28;20131;-79
2022/09/20 11:30:18;;;;;;;4.47;1.10;;;17.40;99.20;;;;;;5011094;28;20040;-80
2022/09/20 11:33:07;;;;;;;4.72;1.20;;;17.60;99.90;;;;;;5009323;28;20041;-80
2022/09/20 11:35:50;;;;;;;6.18;1.10;;;17.90;99.70;;;;;;5000954;28;20045;-79
2022/09/20 11:38:27;;;;;;;3.60;0.90;;;18.10;98.80;;;;;;5016250;28;20128;-79
2022/09/20 11:41:07;;;;;;;8.27;1.20;;;18.40;98.90;;;;;;5025902;28;20040;-80
2022/09/20 11:43:34;;;;;;;3.85;0.80;;;18.20;98.20;;;;;;5016191;28;20128;-78
2022/09/20 11:46:06;;;;;;;5.18;1.00;;;17.90;97.40;;;;;;5028907;28;20106;-78
2022/09/20 11:49:08;;;;;;;4.20;0.80;;;17.30;97.10;;;;;;5029917;28;20113;-79
2022/09/20 11:51:45;;;;;;;5.57;0.80;;;17.20;96.40;;;;;;5011990;28;20123;-80
2022/09/20 11:54:27;;;;;;;5.32;1.10;;;16.70;97.10;;;;;;5022694;28;20044;-78
2022/09/20 11:56:55;;;;;;;4.72;0.88;;;16.60;97.70;;;;;;5008434;28;20090;-79
2022/09/20 11:59:39;;;;;;;4.82;0.90;;;16.80;97.80;;;;;;5023406;28;20045;-78
2022/09/20 12:02:22;;;;;;;6.35;1.05;;;17.40;98.10;;;;;;5024113;28;20073;-77
2022/09/20 12:04:52;;;;;;;6.35;1.10;;;17.90;97.90;;;;;;5004770;28;20045;-78
2022/09/20 12:07:23;;;;;;;3.17;0.65;;;17.80;99.80;;;;;;5024576;28;20060;-79
2022/09/20 12:10:00;;;;;;;8.10;1.27;;;17.60;99.90;;;;;;5008876;28;20204;-78
2022/09/20 12:12:38;;;;;;;2.92;1.08;;;17.90;99.90;;;;;;5020762;28;20053;-80
2022/09/20 12:15:26;;;;;;;5.63;1.10;;;17.50;99.90;;;;;;5018939;28;20048;-80
2022/09/20 12:17:52;;;;;;;6.93;1.25;;;17.40;99.90;;;;;;5011886;28;20132;-77
2022/09/20 12:20:41;;;;;;;8.93;1.20;;;17.30;99.90;;;;;;5025734;28;20132;-79
2022/09/20 12:23:41;;;;;;;7.47;1.20;;;17.10;99.90;;;;;;5026329;28;20056;-77
2022/09/20 12:26:21;;;;;;;5.35;1.00;;;17.10;99.90;;;;;;5009641;28;20045;-78
2022/09/20 12:28:52;;;;;;;6.93;1.05;;;16.70;99.90;;;;;;5008937;28;20103;-78
2022/09/20 12:31:20;;;;;;;8.43;1.40;;;16.90;99.90;;;;;;5012268;28;20421;-78
2022/09/20 12:34:11;;;;;;;5.63;1.00;;;17.20;99.90;;;;;;5033912;28;20487;-79
2022/09/20 12:36:42;;;;;;;6.55;1.20;;;17.90;99.90;;;;;;5018460;28;20044;-79
2022/09/20 12:39:11;;;;;;;6.80;1.73;;;18.20;99.90;;;;;;5020431;28;20049;-78
2022/09/20 12:41:56;;;;;;;4.63;0.98;;;18.30;99.90;;;;;;5020761;28;20041;-79
2022/09/20 12:44:37;;;;;;;4.65;1.00;;;18.50;98.80;;;;;;5028766;28;20049;-79
2022/09/20 12:47:09;;;;;;;5.97;1.15;;;18.50;98.70;;;;;;5026313;28;20357;-79
2022/09/20 12:53:00;;;;;;;4.78;1.00;;;19.10;99.20;;;;;;5027737;28;20041;-80
2022/09/20 12:55:31;;;;;;;9.88;0.90;;;19.30;97.40;;;;;;5009178;28;20424;-80
2022/09/20 12:58:00;;;;;;;5.10;1.10;;;19.50;96.50;;;;;;5008900;28;20048;-79
2022/09/20 13:00:37;;;;;;;7.25;1.00;;;19.40;96.40;;;;;;5000338;28;20130;-80
2022/09/20 13:03:22;;;;;;;9.70;1.20;;;19.50;96.50;;;;;;5023063;28;20399;-79
2022/09/20 13:05:51;;;;;;;;;;;19.20;98.20;;;;;;5021403;28;20087;-85
2022/09/20 13:08:22;;;;;;;6.47;1.10;;;19.30;98.80;;;;;;5016969;28;19952;-82
2022/09/20 13:10:59;;;;;;;3.67;0.90;;;19.10;98.90;;;;;;5009568;28;20090;-82
2022/09/20 13:14:01;;;;;;;6.10;1.08;;;19.00;98.70;;;;;;5026826;28;20037;-82
2022/09/20 13:16:36;;;;;;;5.05;0.90;;;18.40;98.70;;;;;;5018900;28;20041;-82
2022/09/20 13:19:03;;;;;;;6.43;1.13;;;18.00;99.30;;;;;;5023860;28;20995;-83
2022/09/20 13:21:29;;;;;;;4.88;0.90;;;17.60;99.90;;;;;;5005872;28;20153;-82
2022/09/20 13:23:55;;;;;;;4.20;1.10;;;17.90;99.90;;;;;;5007965;28;20060;-83
2022/09/20 13:26:42;;;;;;;6.68;1.05;;;18.00;99.90;;;;;;5046566;28;20045;-82
2022/09/20 13:29:21;;;;;;;8.55;1.23;;;17.30;99.90;;;;;;5029155;28;20075;-83
2022/09/20 13:31:47;;;;;;;4.97;1.20;;;17.70;99.90;;;;;;5033293;28;20099;-83
2022/09/20 13:34:33;;;;;;;4.07;1.20;;;17.70;99.90;;;;;;5049012;28;20045;-82
2022/09/20 13:36:59;;;;;;;5.95;1.02;;;17.70;99.90;;;;;;5033355;28;20056;-84
2022/09/20 13:39:34;;;;;;;6.85;1.27;;;17.70;99.90;;;;;;5024668;28;20044;-84
2022/09/20 13:42:40;;;;;;;7.03;1.10;;;17.90;99.90;;;;;;5012180;28;20408;-84
2022/09/20 13:45:12;;;;;;;6.32;1.08;;;19.00;99.90;;;;;;5031949;28;20071;-83
2022/09/20 13:47:44;;;;;;;5.60;1.00;;;19.10;99.90;;;;;;5046982;28;20032;-84
2022/09/20 13:50:32;;;;;;;4.55;0.90;;;19.10;99.60;;;;;;5014992;28;20037;-82
2022/09/20 13:53:01;;;;;;;6.25;1.05;;;18.60;99.50;;;;;;5013419;28;20029;-84
2022/09/20 13:55:33;;;;;;;4.50;0.90;;;18.60;99.20;;;;;;5014105;28;20060;-83
2022/09/20 13:58:02;;;;;;;2.92;0.80;;;18.60;99.30;;;;;;5032495;28;20041;-82
2022/09/20 14:00:30;;;;;;;5.97;1.25;;;18.30;99.40;;;;;;5012657;28;20151;-83